createdAt,value
2018-01-25T00:02:00.297Z,69.30
2018-01-25T00:04:28.640Z,69.90
2018-01-25T00:06:56.345Z,69.80
2018-01-25T00:09:24.925Z,70.30
2018-01-25T00:11:53.253Z,69.60
2018-01-25T00:14:20.817Z,69.60
2018-01-25T00:16:48.382Z,69.60
2018-01-25T00:19:15.983Z,70.10
2018-01-25T00:21:43.582Z,70.70
2018-01-25T00:24:11.196Z,71.30
2018-01-25T00:26:38.773Z,71.90
2018-01-25T00:29:07.087Z,73.60
2018-01-25T00:31:34.641Z,73.50
2018-01-25T00:34:02.945Z,74.00
2018-01-25T00:36:30.522Z,74.90
2018-01-25T00:38:58.078Z,75.00
2018-01-25T00:41:25.634Z,75.80
2018-01-25T00:43:53.193Z,77.70
2018-01-25T00:46:20.770Z,79.00
2018-01-25T00:48:48.330Z,80.10
2018-01-25T00:51:15.948Z,81.50
2018-01-25T00:53:43.536Z,81.90
2018-01-25T00:56:11.092Z,82.30
2018-01-25T00:58:39.178Z,82.40
2018-01-25T01:01:06.717Z,83.30
2018-01-25T01:03:34.285Z,83.80
2018-01-25T01:06:01.846Z,84.00
2018-01-25T01:08:30.320Z,85.10
2018-01-25T01:10:57.886Z,85.00
2018-01-25T01:13:25.465Z,85.40
2018-01-25T01:15:53.032Z,86.00
2018-01-25T01:18:20.596Z,87.10
2018-01-25T01:20:48.161Z,87.10
2018-01-25T01:23:16.710Z,87.60
2018-01-25T01:25:44.254Z,87.60
2018-01-25T01:28:11.921Z,87.90
2018-01-25T01:30:39.485Z,88.00
2018-01-25T01:33:07.037Z,87.60
2018-01-25T01:35:34.573Z,87.30
2018-01-25T01:38:02.880Z,84.50
2018-01-25T01:40:30.438Z,84.50
2018-01-25T01:42:58.817Z,86.30
2018-01-25T01:45:27.138Z,88.10
2018-01-25T01:47:54.716Z,88.10
2018-01-25T01:50:22.321Z,89.00
2018-01-25T01:52:49.876Z,89.30
2018-01-25T01:55:17.511Z,89.60
2018-01-25T01:57:45.116Z,89.40
2018-01-25T02:00:12.690Z,89.70
2018-01-25T02:02:40.234Z,89.50
2018-01-25T02:05:07.797Z,89.60
2018-01-25T02:07:35.365Z,89.90
2018-01-25T02:10:02.918Z,90.10
2018-01-25T02:12:30.637Z,90.30
2018-01-25T02:14:58.196Z,90.40
2018-01-25T02:17:25.757Z,90.40
2018-01-25T02:19:53.488Z,90.50
2018-01-25T02:22:21.033Z,90.60
2018-01-25T02:24:49.633Z,90.80
2018-01-25T02:27:17.234Z,90.40
2018-01-25T02:29:44.811Z,90.20
2018-01-25T02:32:12.349Z,90.40
2018-01-25T02:34:39.924Z,90.50
2018-01-25T02:37:07.505Z,90.70
2018-01-25T02:39:35.831Z,90.90
2018-01-25T02:42:03.439Z,90.90
2018-01-25T02:44:31.009Z,90.90
2018-01-25T02:46:59.328Z,90.80
2018-01-25T02:49:26.887Z,90.80
2018-01-25T02:51:54.438Z,90.80
2018-01-25T02:54:21.990Z,90.80
2018-01-25T02:56:50.430Z,90.40
2018-01-25T02:59:17.992Z,90.40
2018-01-25T03:01:45.546Z,90.50
2018-01-25T03:04:13.098Z,90.80
2018-01-25T03:06:40.658Z,90.60
2018-01-25T03:09:08.205Z,90.60
2018-01-25T03:11:35.778Z,90.50
2018-01-25T03:14:03.351Z,91.00
2018-01-25T03:16:30.921Z,90.50
2018-01-25T03:18:58.462Z,90.60
2018-01-25T03:21:26.177Z,90.40
2018-01-25T03:23:54.755Z,90.50
2018-01-25T03:26:23.294Z,90.40
2018-01-25T03:28:50.868Z,90.70
2018-01-25T03:31:19.224Z,90.90
2018-01-25T03:33:46.783Z,90.80
2018-01-25T03:36:14.357Z,90.60
2018-01-25T03:38:41.917Z,90.00
2018-01-25T03:41:09.473Z,90.00
2018-01-25T03:43:37.033Z,90.40
2018-01-25T03:46:04.664Z,90.10
2018-01-25T03:48:33.744Z,90.60
2018-01-25T03:51:01.307Z,90.60
2018-01-25T03:53:28.869Z,90.30
2018-01-25T03:55:57.183Z,90.30
2018-01-25T03:58:24.964Z,90.30
2018-01-25T04:00:52.524Z,89.60
2018-01-25T04:03:20.089Z,89.70
2018-01-25T04:05:47.638Z,89.80
2018-01-25T04:08:15.208Z,90.10
2018-01-25T04:10:42.747Z,90.30
2018-01-25T04:13:10.317Z,90.50
2018-01-25T04:15:37.885Z,90.40
2018-01-25T04:18:05.438Z,89.60
2018-01-25T04:20:32.994Z,89.90
2018-01-25T04:23:00.684Z,90.10
2018-01-25T04:25:28.228Z,90.10
2018-01-25T04:27:55.774Z,89.70
2018-01-25T04:30:24.120Z,89.90
2018-01-25T04:32:51.765Z,89.80
2018-01-25T04:35:19.369Z,90.10
2018-01-25T04:37:47.723Z,90.20
2018-01-25T04:40:15.289Z,90.20
2018-01-25T04:42:42.836Z,90.00
2018-01-25T04:45:10.400Z,90.10
2018-01-25T04:47:37.969Z,90.40
2018-01-25T04:50:05.509Z,90.60
2018-01-25T04:52:33.067Z,90.60
2018-01-25T04:55:00.645Z,90.70
2018-01-25T04:57:28.217Z,90.70
2018-01-25T04:59:56.581Z,90.60
2018-01-25T05:02:25.118Z,90.40
2018-01-25T05:04:53.474Z,90.70
2018-01-25T05:07:21.237Z,90.70
2018-01-25T05:09:48.793Z,90.90
2018-01-25T05:12:16.340Z,91.00
2018-01-25T05:14:43.901Z,90.80
2018-01-25T05:17:26.325Z,90.80
2018-01-25T05:19:53.893Z,90.90
2018-01-25T05:22:21.453Z,90.90
2018-01-25T05:24:49.044Z,90.80
2018-01-25T05:27:17.402Z,91.00
2018-01-25T05:29:45.777Z,90.90
2018-01-25T05:32:13.345Z,91.00
2018-01-25T05:34:41.746Z,91.00
2018-01-25T05:37:10.130Z,91.10
2018-01-25T05:39:37.688Z,91.10
2018-01-25T05:42:06.039Z,91.40
2018-01-25T05:44:33.640Z,91.30
2018-01-25T05:47:01.257Z,91.60
2018-01-25T05:49:28.845Z,91.70
2018-01-25T05:51:56.398Z,91.80
2018-01-25T05:54:23.966Z,91.90
2018-01-25T05:56:51.521Z,91.90
2018-01-25T05:59:19.140Z,91.90
2018-01-25T06:01:46.702Z,91.80
2018-01-25T06:04:14.263Z,91.70
2018-01-25T06:06:42.022Z,91.60
2018-01-25T06:09:09.595Z,91.60
2018-01-25T06:11:37.206Z,91.50
2018-01-25T06:14:04.858Z,91.70
2018-01-25T06:16:33.200Z,90.90
2018-01-25T06:19:00.766Z,90.90
2018-01-25T06:21:29.092Z,91.40
2018-01-25T06:23:56.707Z,91.30
2018-01-25T06:26:24.265Z,91.50
2018-01-25T06:28:51.841Z,91.50
2018-01-25T06:31:19.409Z,91.60
2018-01-25T06:33:47.002Z,91.70
2018-01-25T06:36:14.562Z,91.60
2018-01-25T06:38:42.118Z,91.50
2018-01-25T06:41:09.785Z,91.70
2018-01-25T06:43:37.367Z,91.40
2018-01-25T06:46:05.716Z,91.40
2018-01-25T06:48:33.277Z,91.30
2018-01-25T06:51:00.841Z,91.30
2018-01-25T06:53:29.171Z,91.50
2018-01-25T06:55:56.721Z,91.50
2018-01-25T06:58:25.066Z,91.70
2018-01-25T07:00:53.572Z,91.70
2018-01-25T07:03:22.178Z,91.60
2018-01-25T07:05:49.861Z,91.60
2018-01-25T07:08:18.153Z,91.60
2018-01-25T07:10:45.857Z,91.60
2018-01-25T07:13:13.405Z,91.80
2018-01-25T07:15:40.960Z,91.80
2018-01-25T07:18:08.533Z,91.80
2018-01-25T07:20:36.881Z,91.70
2018-01-25T07:23:05.352Z,91.60
2018-01-25T07:25:32.925Z,91.90
2018-01-25T07:28:00.494Z,91.90
2018-01-25T07:30:28.052Z,91.60
2018-01-25T07:32:55.599Z,91.60
2018-01-25T07:35:23.193Z,91.70
2018-01-25T07:37:51.288Z,91.50
2018-01-25T07:40:18.860Z,91.40
2018-01-25T07:42:47.192Z,91.50
2018-01-25T07:45:14.781Z,91.50
2018-01-25T07:47:42.930Z,91.40
2018-01-25T07:50:10.480Z,91.50
2018-01-25T07:52:38.046Z,91.70
2018-01-25T07:55:05.619Z,91.90
2018-01-25T07:57:38.823Z,92.00
2018-01-25T08:00:07.237Z,91.20
2018-01-25T08:02:35.596Z,91.30
2018-01-25T08:05:03.222Z,91.10
2018-01-25T08:07:30.778Z,91.00
2018-01-25T08:09:58.489Z,91.20
2018-01-25T08:12:26.061Z,91.10
2018-01-25T08:14:53.625Z,91.40
2018-01-25T08:17:21.965Z,91.50
2018-01-25T08:19:49.579Z,91.50
2018-01-25T08:22:17.914Z,91.30
2018-01-25T08:24:45.470Z,91.30
2018-01-25T08:27:13.023Z,91.10
2018-01-25T08:29:40.653Z,90.80
2018-01-25T08:32:08.162Z,90.90
2018-01-25T08:34:35.726Z,91.00
2018-01-25T08:37:03.301Z,91.50
2018-01-25T08:39:30.866Z,91.40
2018-01-25T08:41:58.432Z,91.40
2018-01-25T08:44:26.133Z,91.40
2018-01-25T08:46:53.763Z,91.30
2018-01-25T08:49:21.437Z,91.00
2018-01-25T08:51:49.201Z,91.10
2018-01-25T08:54:16.785Z,91.60
2018-01-25T08:56:45.099Z,91.40
2018-01-25T08:59:12.660Z,91.40
2018-01-25T09:01:40.233Z,91.20
2018-01-25T09:04:08.602Z,90.80
2018-01-25T09:06:36.186Z,90.80
2018-01-25T09:09:03.729Z,90.90
2018-01-25T09:11:31.441Z,90.90
2018-01-25T09:13:59.013Z,91.20
2018-01-25T09:16:27.432Z,91.40
2018-01-25T09:18:55.016Z,91.40
2018-01-25T09:21:22.584Z,91.40
2018-01-25T09:23:50.149Z,91.30
2018-01-25T09:26:17.760Z,91.10
2018-01-25T09:28:45.312Z,91.00
2018-01-25T09:31:13.674Z,90.90
2018-01-25T09:33:41.237Z,90.90
2018-01-25T09:36:09.589Z,91.20
2018-01-25T09:38:37.137Z,90.90
2018-01-25T09:41:04.699Z,90.70
2018-01-25T09:43:32.278Z,90.70
2018-01-25T09:45:59.837Z,90.70
2018-01-25T09:48:28.221Z,90.70
2018-01-25T09:50:55.823Z,90.70
2018-01-25T09:53:24.176Z,90.40
2018-01-25T09:55:51.804Z,90.40
2018-01-25T09:58:19.377Z,90.10
2018-01-25T10:00:46.932Z,89.90
2018-01-25T10:03:14.526Z,88.70
2018-01-25T10:05:42.097Z,86.80
2018-01-25T10:08:10.425Z,85.20
2018-01-25T10:10:37.981Z,86.20
2018-01-25T10:13:05.542Z,85.80
2018-01-25T10:15:33.104Z,85.20
2018-01-25T10:18:00.669Z,84.80
2018-01-25T10:20:28.234Z,85.20
2018-01-25T10:22:55.816Z,85.00
2018-01-25T10:25:23.365Z,83.90
2018-01-25T10:27:50.908Z,84.20
2018-01-25T10:30:18.453Z,83.90
2018-01-25T10:32:46.085Z,82.60
2018-01-25T10:35:13.717Z,83.70
2018-01-25T10:37:41.270Z,80.90
2018-01-25T10:40:08.825Z,80.90
2018-01-25T10:42:37.381Z,82.20
2018-01-25T10:45:05.733Z,82.80
2018-01-25T10:47:33.298Z,82.60
2018-01-25T10:50:00.881Z,81.80
2018-01-25T10:52:29.200Z,81.60
2018-01-25T10:54:56.753Z,81.60
2018-01-25T10:57:24.372Z,81.10
2018-01-25T10:59:52.699Z,81.60
2018-01-25T11:02:21.143Z,81.50
2018-01-25T11:04:49.465Z,79.00
2018-01-25T11:07:17.024Z,78.90
2018-01-25T11:09:44.586Z,79.20
2018-01-25T11:12:12.952Z,78.20
2018-01-25T11:14:40.519Z,77.30
2018-01-25T11:17:08.084Z,78.60
2018-01-25T11:19:35.639Z,78.40
2018-01-25T11:22:03.216Z,78.00
2018-01-25T11:24:30.914Z,78.80
2018-01-25T11:26:58.584Z,77.30
2018-01-25T11:29:26.181Z,77.30
2018-01-25T11:31:53.752Z,77.70
2018-01-25T11:34:21.292Z,78.10
2018-01-25T11:36:49.645Z,77.40
2018-01-25T11:39:17.206Z,77.40
2018-01-25T11:41:45.545Z,77.40
2018-01-25T11:44:13.229Z,77.20
2018-01-25T11:46:40.776Z,77.20
2018-01-25T11:49:08.358Z,76.80
2018-01-25T11:51:35.927Z,77.40
2018-01-25T11:54:04.262Z,79.10
2018-01-25T11:56:32.717Z,77.60
2018-01-25T11:59:00.303Z,77.50
2018-01-25T12:01:27.860Z,78.10
2018-01-25T12:03:55.454Z,78.20
2018-01-25T12:06:23.778Z,78.60
2018-01-25T12:08:51.652Z,78.70
2018-01-25T12:11:19.005Z,78.10
2018-01-25T12:13:46.572Z,76.90
2018-01-25T12:16:14.137Z,77.40
2018-01-25T12:18:41.715Z,77.30
2018-01-25T12:21:09.312Z,77.70
2018-01-25T12:23:37.654Z,78.20
2018-01-25T12:26:05.301Z,78.20
2018-01-25T12:28:33.074Z,79.10
2018-01-25T12:31:00.642Z,79.80
2018-01-25T12:33:28.226Z,79.50
2018-01-25T12:35:55.782Z,81.90
2018-01-25T12:38:23.339Z,81.80
2018-01-25T12:40:50.896Z,82.30
2018-01-25T12:43:18.490Z,82.20
2018-01-25T12:45:46.808Z,82.00
2018-01-25T12:48:14.400Z,82.00
2018-01-25T12:50:41.946Z,83.00
2018-01-25T12:53:09.537Z,83.50
2018-01-25T12:55:37.824Z,80.30
2018-01-25T12:58:05.409Z,80.10
2018-01-25T13:00:32.983Z,81.00
2018-01-25T13:03:00.573Z,80.60
2018-01-25T13:05:28.132Z,82.20
2018-01-25T13:07:55.742Z,81.90
2018-01-25T13:10:24.075Z,81.20
2018-01-25T13:12:51.646Z,82.20
2018-01-25T13:15:19.225Z,82.40
2018-01-25T13:17:46.766Z,81.40
2018-01-25T13:20:14.588Z,82.60
2018-01-25T13:22:42.899Z,81.60
2018-01-25T13:25:10.500Z,81.50
2018-01-25T13:27:38.049Z,80.80
2018-01-25T13:30:06.475Z,79.50
2018-01-25T13:32:34.032Z,79.80
2018-01-25T13:35:02.357Z,78.80
2018-01-25T13:37:29.930Z,78.70
2018-01-25T13:39:57.491Z,78.90
2018-01-25T13:42:25.807Z,79.00
2018-01-25T13:44:54.133Z,78.50
2018-01-25T13:47:21.681Z,78.50
2018-01-25T13:49:49.368Z,78.10
2018-01-25T13:54:56.117Z,78.60
2018-01-25T13:57:24.448Z,77.80
2018-01-25T13:59:52.099Z,77.80
2018-01-25T14:02:19.658Z,77.90
2018-01-25T14:04:47.322Z,78.20
2018-01-25T14:07:14.887Z,79.00
2018-01-25T14:09:42.441Z,77.10
2018-01-25T14:12:09.985Z,77.20
2018-01-25T14:14:37.545Z,78.00
2018-01-25T14:17:05.124Z,77.70
2018-01-25T14:19:32.681Z,76.70
2018-01-25T14:22:00.240Z,77.30
2018-01-25T14:24:27.974Z,77.80
2018-01-25T14:26:56.328Z,77.50
2018-01-25T14:29:23.908Z,77.50
2018-01-25T14:31:52.187Z,76.80
2018-01-25T14:34:19.987Z,76.10
2018-01-25T14:36:47.532Z,77.50
2018-01-25T14:39:15.099Z,76.90
2018-01-25T14:41:42.780Z,78.30
2018-01-25T14:44:10.349Z,77.90
2018-01-25T14:46:37.910Z,77.30
2018-01-25T14:49:05.469Z,77.60
2018-01-25T14:51:33.407Z,77.70
2018-01-25T14:54:01.047Z,78.20
2018-01-25T14:56:28.607Z,79.10
2018-01-25T14:58:56.265Z,80.00
2018-01-25T15:01:23.834Z,81.30
2018-01-25T15:03:51.426Z,82.50
2018-01-25T15:06:19.765Z,83.50
2018-01-25T15:08:47.475Z,83.50
2018-01-25T15:11:15.817Z,83.90
2018-01-25T15:13:43.538Z,83.90
2018-01-25T15:16:11.128Z,84.30
2018-01-25T15:18:38.693Z,84.30
2018-01-25T15:21:06.244Z,84.50
2018-01-25T15:23:33.830Z,84.80
2018-01-25T15:26:06.210Z,84.70
2018-01-25T15:28:33.772Z,85.20
2018-01-25T15:31:01.341Z,85.20
2018-01-25T15:33:28.969Z,84.90
2018-01-25T15:35:57.284Z,85.60
2018-01-25T15:38:24.825Z,85.60
2018-01-25T15:40:52.389Z,85.80
2018-01-25T15:43:19.957Z,86.10
2018-01-25T15:45:47.535Z,85.90
2018-01-25T15:48:15.109Z,86.90
2018-01-25T15:50:42.758Z,86.60
2018-01-25T15:53:10.346Z,86.70
2018-01-25T15:55:38.028Z,86.70
2018-01-25T15:58:05.605Z,87.20
2018-01-25T16:00:33.167Z,87.70
2018-01-25T16:03:00.748Z,88.10
2018-01-25T16:05:28.353Z,88.60
2018-01-25T16:07:55.877Z,88.90
2018-01-25T16:10:23.595Z,89.00
2018-01-25T16:12:51.181Z,89.90
2018-01-25T16:15:18.769Z,90.10
2018-01-25T16:17:46.348Z,90.10
2018-01-25T16:20:13.949Z,90.00
2018-01-25T16:22:42.105Z,90.00
2018-01-25T16:25:10.477Z,90.20
2018-01-25T16:27:38.042Z,90.20
2018-01-25T16:30:06.379Z,90.40
2018-01-25T16:32:33.925Z,90.40
2018-01-25T16:35:01.614Z,90.40
2018-01-25T16:37:29.193Z,90.30
2018-01-25T16:39:56.752Z,90.40
2018-01-25T16:42:24.354Z,90.60
2018-01-25T16:44:52.034Z,90.60
2018-01-25T16:47:19.627Z,90.60
2018-01-25T16:49:47.182Z,90.70
2018-01-25T16:52:14.727Z,90.70
2018-01-25T16:54:42.469Z,90.70
2018-01-25T16:57:10.130Z,90.70
2018-01-25T16:59:37.701Z,90.70
2018-01-25T17:02:05.296Z,91.00
2018-01-25T17:04:32.840Z,90.90
2018-01-25T17:07:00.431Z,90.90
2018-01-25T17:09:28.038Z,91.00
2018-01-25T17:11:55.613Z,91.00
2018-01-25T17:14:23.270Z,91.10
2018-01-25T17:16:50.826Z,91.20
2018-01-25T17:19:18.393Z,91.30
2018-01-25T17:21:46.346Z,91.30
2018-01-25T17:24:14.158Z,91.10
2018-01-25T17:26:42.470Z,91.30
2018-01-25T17:29:10.052Z,91.30
2018-01-25T17:31:37.631Z,91.30
2018-01-25T17:34:05.226Z,91.30
2018-01-25T17:36:33.645Z,91.60
2018-01-25T17:39:01.233Z,91.60
2018-01-25T17:41:28.782Z,91.70
2018-01-25T17:43:56.330Z,91.70
2018-01-25T17:46:23.881Z,91.50
2018-01-25T17:48:51.429Z,92.00
2018-01-25T17:51:19.036Z,91.80
2018-01-25T17:53:46.633Z,91.90
2018-01-25T17:56:14.952Z,91.90
2018-01-25T17:58:42.497Z,91.90
2018-01-25T18:01:10.065Z,91.60
2018-01-25T18:03:37.685Z,91.40
2018-01-25T18:06:05.219Z,91.20
2018-01-25T18:08:32.797Z,91.10
2018-01-25T18:11:00.912Z,90.70
2018-01-25T18:13:28.553Z,90.60
2018-01-25T18:15:57.182Z,90.60
2018-01-25T18:18:24.753Z,90.60
2018-01-25T18:20:52.354Z,90.60
2018-01-25T18:23:20.887Z,90.80
2018-01-25T18:25:48.566Z,90.80
2018-01-25T18:28:16.188Z,90.80
2018-01-25T18:30:43.781Z,90.90
2018-01-25T18:33:11.319Z,90.90
2018-01-25T18:35:39.022Z,91.00
2018-01-25T18:38:06.643Z,91.10
2018-01-25T18:40:34.234Z,91.20
2018-01-25T18:43:01.807Z,91.10
2018-01-25T18:45:29.366Z,91.20
2018-01-25T18:47:56.919Z,91.30
2018-01-25T18:50:24.482Z,91.50
2018-01-25T18:52:52.059Z,91.50
2018-01-25T18:55:19.617Z,91.40
2018-01-25T18:57:48.230Z,91.40
2018-01-25T19:00:15.786Z,91.50
2018-01-25T19:02:43.347Z,91.70
2018-01-25T19:05:11.015Z,91.50
2018-01-25T19:07:38.597Z,91.50
2018-01-25T19:10:07.155Z,91.80
2018-01-25T19:12:34.719Z,91.70
2018-01-25T19:15:02.451Z,91.80
2018-01-25T19:17:30.074Z,91.70
2018-01-25T19:19:58.422Z,91.60
2018-01-25T19:22:26.755Z,91.40
2018-01-25T19:24:54.323Z,91.40
2018-01-25T19:27:22.838Z,91.40
2018-01-25T19:29:50.401Z,91.30
2018-01-25T19:32:18.004Z,91.30
2018-01-25T19:34:46.345Z,91.40
2018-01-25T19:37:14.865Z,91.40
2018-01-25T19:39:44.050Z,91.20
2018-01-25T19:42:11.632Z,91.20
2018-01-25T19:44:40.071Z,91.30
2018-01-25T19:47:07.676Z,91.30
2018-01-25T19:49:36.041Z,91.50
2018-01-25T19:52:03.777Z,91.50
2018-01-25T19:54:31.617Z,91.50
2018-01-25T19:56:59.817Z,91.30
2018-01-25T19:59:27.467Z,91.40
2018-01-25T20:01:55.157Z,91.50
2018-01-25T20:04:23.101Z,91.60
2018-01-25T20:06:51.077Z,91.80
2018-01-25T20:09:18.698Z,91.90
2018-01-25T20:11:47.053Z,92.00
2018-01-25T20:14:14.624Z,91.90
2018-01-25T20:16:42.217Z,91.80
2018-01-25T20:19:09.803Z,91.80
2018-01-25T20:21:38.221Z,91.80
2018-01-25T20:24:06.626Z,91.80
2018-01-25T20:26:34.216Z,91.80
2018-01-25T20:29:02.493Z,91.80
2018-01-25T20:31:30.252Z,91.70
2018-01-25T20:33:57.938Z,91.80
2018-01-25T20:36:25.548Z,91.90
2018-01-25T20:38:53.164Z,91.80
2018-01-25T20:41:20.781Z,91.80
2018-01-25T20:43:49.118Z,92.10
2018-01-25T20:46:16.866Z,92.10
2018-01-25T20:48:44.841Z,92.10
2018-01-25T20:51:12.892Z,92.10
2018-01-25T20:53:42.368Z,92.10
2018-01-25T20:56:09.996Z,92.10
2018-01-25T20:58:37.646Z,92.00
2018-01-25T21:01:05.620Z,91.90
2018-01-25T21:03:33.597Z,92.00
2018-01-25T21:06:01.400Z,92.00
2018-01-25T21:08:28.983Z,92.10
2018-01-25T21:10:57.424Z,92.20
2018-01-25T21:13:25.045Z,92.10
2018-01-25T21:15:52.639Z,92.10
2018-01-25T21:18:20.229Z,92.10
2018-01-25T21:20:47.833Z,92.10
2018-01-25T21:23:17.068Z,92.10
2018-01-25T21:25:44.635Z,92.10
2018-01-25T21:28:12.266Z,92.10
2018-01-25T21:30:39.911Z,92.10
2018-01-25T21:33:07.516Z,92.20
2018-01-25T21:35:35.972Z,92.20
2018-01-25T21:38:03.543Z,92.20
2018-01-25T21:40:31.137Z,92.20
2018-01-25T21:42:58.740Z,92.30
2018-01-25T21:45:27.072Z,92.30
2018-01-25T21:47:54.652Z,92.30
2018-01-25T21:50:22.222Z,92.30
2018-01-25T21:52:49.794Z,92.20
2018-01-25T21:55:17.357Z,91.80
2018-01-25T21:57:45.097Z,91.50
2018-01-25T22:00:12.668Z,91.30
2018-01-25T22:02:40.238Z,91.30
2018-01-25T22:05:07.792Z,91.20
2018-01-25T22:07:35.374Z,91.40
2018-01-25T22:10:03.137Z,91.40
2018-01-25T22:12:30.718Z,91.40
2018-01-25T22:14:58.330Z,91.40
2018-01-25T22:17:25.896Z,91.30
2018-01-25T22:19:53.457Z,91.20
2018-01-25T22:22:21.056Z,91.30
2018-01-25T22:24:48.645Z,91.10
2018-01-25T22:27:16.232Z,90.90
2018-01-25T22:29:43.794Z,91.00
2018-01-25T22:32:11.405Z,91.10
2018-01-25T22:34:39.017Z,91.10
2018-01-25T22:37:06.563Z,91.00
2018-01-25T22:39:34.136Z,91.20
2018-01-25T22:42:01.734Z,91.40
2018-01-25T22:44:29.284Z,91.30
2018-01-25T22:46:57.614Z,91.40
2018-01-25T22:49:25.198Z,91.10
2018-01-25T22:51:52.740Z,91.00
2018-01-25T22:54:20.309Z,90.90
2018-01-25T22:56:47.883Z,90.80
2018-01-25T22:59:15.590Z,90.80
